sensor_id;sensor_type;location;lat;lon;timestamp;pressure;altitude;pressure_sealevel;temperature;humidity
8699;BME280;4386;51.236;6.742;2022-11-20T00:00:06;100807.25;;;6.34;68.31
8699;BME280;4386;51.236;6.742;2022-11-20T00:01:11;100807.44;;;6.31;68.30
8699;BME280;4386;51.236;6.742;2022-11-20T00:02:12;100816.25;;;6.30;68.63
8699;BME280;4386;51.236;6.742;2022-11-20T00:03:15;100810.13;;;6.29;68.60
8699;BME280;4386;51.236;6.742;2022-11-20T00:04:18;100805.72;;;6.30;68.48
8699;BME280;4386;51.236;6.742;2022-11-20T00:05:20;100804.03;;;6.29;68.55
8699;BME280;4386;51.236;6.742;2022-11-20T00:06:25;100800.66;;;6.27;68.35
8699;BME280;4386;51.236;6.742;2022-11-20T00:07:27;100808.63;;;6.25;68.70
8699;BME280;4386;51.236;6.742;2022-11-20T00:08:29;100809.66;;;6.23;68.74
8699;BME280;4386;51.236;6.742;2022-11-20T00:09:31;100804.38;;;6.23;68.67
8699;BME280;4386;51.236;6.742;2022-11-20T00:10:35;100801.88;;;6.21;68.90
8699;BME280;4386;51.236;6.742;2022-11-20T00:11:38;100801.00;;;6.21;68.90
8699;BME280;4386;51.236;6.742;2022-11-20T00:12:40;100798.47;;;6.19;69.10
8699;BME280;4386;51.236;6.742;2022-11-20T00:13:42;100798.56;;;6.18;68.88
8699;BME280;4386;51.236;6.742;2022-11-20T00:14:44;100804.75;;;6.17;68.79
8699;BME280;4386;51.236;6.742;2022-11-20T00:15:46;100796.13;;;6.15;68.95
8699;BME280;4386;51.236;6.742;2022-11-20T00:16:48;100807.63;;;6.12;69.13
8699;BME280;4386;51.236;6.742;2022-11-20T00:17:50;100811.22;;;6.11;69.38
8699;BME280;4386;51.236;6.742;2022-11-20T00:18:52;100812.22;;;6.09;69.05
8699;BME280;4386;51.236;6.742;2022-11-20T00:19:55;100809.72;;;6.07;69.29
8699;BME280;4386;51.236;6.742;2022-11-20T00:21:00;100805.47;;;6.05;69.24
8699;BME280;4386;51.236;6.742;2022-11-20T00:22:05;100812.41;;;6.06;69.31
8699;BME280;4386;51.236;6.742;2022-11-20T00:23:07;100807.34;;;6.03;69.71
8699;BME280;4386;51.236;6.742;2022-11-20T00:24:09;100814.28;;;6.04;69.38
8699;BME280;4386;51.236;6.742;2022-11-20T00:25:12;100805.66;;;6.02;69.64
8699;BME280;4386;51.236;6.742;2022-11-20T00:26:15;100810.06;;;6.01;69.55
8699;BME280;4386;51.236;6.742;2022-11-20T00:27:18;100807.44;;;6.01;69.46
8699;BME280;4386;51.236;6.742;2022-11-20T00:28:20;100804.88;;;6.00;69.50
8699;BME280;4386;51.236;6.742;2022-11-20T00:29:22;100811.09;;;5.99;70.06
8699;BME280;4386;51.236;6.742;2022-11-20T00:30:24;100801.41;;;5.99;69.89
8699;BME280;4386;51.236;6.742;2022-11-20T00:31:27;100804.97;;;5.98;69.68
8699;BME280;4386;51.236;6.742;2022-11-20T00:32:29;100811.09;;;5.99;69.93
8699;BME280;4386;51.236;6.742;2022-11-20T00:33:32;100804.13;;;5.98;70.11
8699;BME280;4386;51.236;6.742;2022-11-20T00:34:34;100799.72;;;5.98;70.24
8699;BME280;4386;51.236;6.742;2022-11-20T00:35:36;100802.44;;;5.97;70.05
8699;BME280;4386;51.236;6.742;2022-11-20T00:36:38;100809.41;;;5.98;69.97
8699;BME280;4386;51.236;6.742;2022-11-20T00:37:42;100801.56;;;5.96;70.28
8699;BME280;4386;51.236;6.742;2022-11-20T00:38:44;100809.56;;;5.95;70.18
8699;BME280;4386;51.236;6.742;2022-11-20T00:39:47;100804.31;;;5.95;70.44
8699;BME280;4386;51.236;6.742;2022-11-20T00:40:54;100799.97;;;5.94;70.48
8699;BME280;4386;51.236;6.742;2022-11-20T00:41:57;100797.44;;;5.92;70.28
8699;BME280;4386;51.236;6.742;2022-11-20T00:42:59;100804.50;;;5.92;70.30
8699;BME280;4386;51.236;6.742;2022-11-20T00:44:01;100800.22;;;5.89;70.15
8699;BME280;4386;51.236;6.742;2022-11-20T00:45:03;100797.69;;;5.88;70.38
8699;BME280;4386;51.236;6.742;2022-11-20T00:46:09;100795.06;;;5.88;70.46
8699;BME280;4386;51.236;6.742;2022-11-20T00:47:11;100790.75;;;5.87;70.70
8699;BME280;4386;51.236;6.742;2022-11-20T00:48:13;100792.59;;;5.85;70.55
8699;BME280;4386;51.236;6.742;2022-11-20T00:49:15;100797.00;;;5.84;70.49
8699;BME280;4386;51.236;6.742;2022-11-20T00:50:17;100791.81;;;5.83;70.51
8699;BME280;4386;51.236;6.742;2022-11-20T00:51:21;100800.66;;;5.82;70.73
8699;BME280;4386;51.236;6.742;2022-11-20T00:52:24;100806.84;;;5.81;70.74
8699;BME280;4386;51.236;6.742;2022-11-20T00:53:27;100798.22;;;5.78;70.83
8699;BME280;4386;51.236;6.742;2022-11-20T00:54:29;100795.75;;;5.75;70.71
8699;BME280;4386;51.236;6.742;2022-11-20T00:55:32;100796.69;;;5.74;70.65
8699;BME280;4386;51.236;6.742;2022-11-20T00:56:33;100800.22;;;5.73;70.71
8699;BME280;4386;51.236;6.742;2022-11-20T00:57:36;100802.13;;;5.71;70.76
8699;BME280;4386;51.236;6.742;2022-11-20T00:58:38;100800.41;;;5.70;71.19
8699;BME280;4386;51.236;6.742;2022-11-20T00:59:41;100794.41;;;5.68;71.17
8699;BME280;4386;51.236;6.742;2022-11-20T01:00:43;100793.63;;;5.66;71.31
8699;BME280;4386;51.236;6.742;2022-11-20T01:01:45;100791.09;;;5.65;71.19
8699;BME280;4386;51.236;6.742;2022-11-20T01:02:47;100793.72;;;5.65;71.38
8699;BME280;4386;51.236;6.742;2022-11-20T01:03:51;100798.13;;;5.64;71.61
8699;BME280;4386;51.236;6.742;2022-11-20T01:04:53;100798.97;;;5.65;71.50
8699;BME280;4386;51.236;6.742;2022-11-20T01:05:59;100790.25;;;5.64;71.52
8699;BME280;4386;51.236;6.742;2022-11-20T01:07:01;100794.66;;;5.64;71.61
8699;BME280;4386;51.236;6.742;2022-11-20T01:08:04;100793.72;;;5.65;71.77
8699;BME280;4386;51.236;6.742;2022-11-20T01:09:10;100791.16;;;5.63;71.83
8699;BME280;4386;51.236;6.742;2022-11-20T01:10:12;100788.66;;;5.62;71.69
8699;BME280;4386;51.236;6.742;2022-11-20T01:11:17;100792.13;;;5.62;71.69
8699;BME280;4386;51.236;6.742;2022-11-20T01:12:20;100784.31;;;5.61;72.03
8699;BME280;4386;51.236;6.742;2022-11-20T01:13:21;100787.03;;;5.59;71.90
8699;BME280;4386;51.236;6.742;2022-11-20T01:14:42;100794.94;;;5.59;71.71
8699;BME280;4386;51.236;6.742;2022-11-20T01:15:44;100783.63;;;5.57;71.96
8699;BME280;4386;51.236;6.742;2022-11-20T01:16:48;100783.63;;;5.57;72.11
8699;BME280;4386;51.236;6.742;2022-11-20T01:17:50;100786.19;;;5.59;72.29
8699;BME280;4386;51.236;6.742;2022-11-20T01:18:56;100781.78;;;5.59;72.19
8699;BME280;4386;51.236;6.742;2022-11-20T01:19:57;100783.47;;;5.60;71.98
8699;BME280;4386;51.236;6.742;2022-11-20T01:21:01;100783.47;;;5.60;72.31
8699;BME280;4386;51.236;6.742;2022-11-20T01:22:03;100785.16;;;5.61;72.32
8699;BME280;4386;51.236;6.742;2022-11-20T01:23:06;100783.47;;;5.60;72.20
8699;BME280;4386;51.236;6.742;2022-11-20T01:24:11;100777.34;;;5.60;72.42
8699;BME280;4386;51.236;6.742;2022-11-20T01:25:14;100788.88;;;5.57;72.33
8699;BME280;4386;51.236;6.742;2022-11-20T01:26:20;100781.94;;;5.56;72.21
8699;BME280;4386;51.236;6.742;2022-11-20T01:27:22;100787.19;;;5.56;72.09
8699;BME280;4386;51.236;6.742;2022-11-20T01:28:25;100795.06;;;5.56;72.25
8699;BME280;4386;51.236;6.742;2022-11-20T01:29:27;100790.78;;;5.55;72.49
8699;BME280;4386;51.236;6.742;2022-11-20T01:30:29;100793.28;;;5.57;72.50
8699;BME280;4386;51.236;6.742;2022-11-20T01:31:32;100797.69;;;5.56;72.44
8699;BME280;4386;51.236;6.742;2022-11-20T01:32:35;100793.41;;;5.55;72.50
8699;BME280;4386;51.236;6.742;2022-11-20T01:33:37;100793.47;;;5.54;72.55
8699;BME280;4386;51.236;6.742;2022-11-20T01:34:39;100790.84;;;5.54;72.51
8699;BME280;4386;51.236;6.742;2022-11-20T01:35:41;100788.31;;;5.52;72.57
8699;BME280;4386;51.236;6.742;2022-11-20T01:36:43;100790.94;;;5.52;72.61
8699;BME280;4386;51.236;6.742;2022-11-20T01:37:45;100788.22;;;5.54;72.66
8699;BME280;4386;51.236;6.742;2022-11-20T01:38:48;100780.25;;;5.55;72.63
8699;BME280;4386;51.236;6.742;2022-11-20T01:39:53;100786.19;;;5.59;72.89
8699;BME280;4386;51.236;6.742;2022-11-20T01:40:56;100786.09;;;5.60;72.85
8699;BME280;4386;51.236;6.742;2022-11-20T01:41:57;100786.88;;;5.62;72.63
8699;BME280;4386;51.236;6.742;2022-11-20T01:43:19;100785.06;;;5.63;72.50
8699;BME280;4386;51.236;6.742;2022-11-20T01:46:04;100781.59;;;5.62;72.50
8699;BME280;4386;51.236;6.742;2022-11-20T01:47:07;100779.06;;;5.61;72.62
8699;BME280;4386;51.236;6.742;2022-11-20T01:48:11;100780.84;;;5.60;72.85
8699;BME280;4386;51.236;6.742;2022-11-20T01:49:16;100779.91;;;5.61;72.92
8699;BME280;4386;51.236;6.742;2022-11-20T01:50:23;100774.66;;;5.61;72.65
8699;BME280;4386;51.236;6.742;2022-11-20T01:51:29;100773.72;;;5.62;72.77
8699;BME280;4386;51.236;6.742;2022-11-20T01:52:36;100783.28;;;5.63;72.74
8699;BME280;4386;51.236;6.742;2022-11-20T01:53:39;100778.97;;;5.62;72.97
8699;BME280;4386;51.236;6.742;2022-11-20T01:54:45;100771.09;;;5.62;72.96
8699;BME280;4386;51.236;6.742;2022-11-20T01:55:51;100771.00;;;5.64;73.14
8699;BME280;4386;51.236;6.742;2022-11-20T01:56:57;100774.47;;;5.64;72.94
8699;BME280;4386;51.236;6.742;2022-11-20T01:58:01;100770.91;;;5.65;72.91
8699;BME280;4386;51.236;6.742;2022-11-20T01:59:07;100774.28;;;5.67;73.02
8699;BME280;4386;51.236;6.742;2022-11-20T02:00:12;100774.13;;;5.70;73.34
8699;BME280;4386;51.236;6.742;2022-11-20T02:01:15;100768.69;;;5.73;73.22
8699;BME280;4386;51.236;6.742;2022-11-20T02:02:17;100772.09;;;5.75;73.27
8699;BME280;4386;51.236;6.742;2022-11-20T02:03:20;100776.41;;;5.76;72.90
8699;BME280;4386;51.236;6.742;2022-11-20T02:04:22;100768.31;;;5.79;73.07
8699;BME280;4386;51.236;6.742;2022-11-20T02:05:30;100766.47;;;5.82;73.29
8699;BME280;4386;51.236;6.742;2022-11-20T02:06:36;100769.84;;;5.84;73.16
8699;BME280;4386;51.236;6.742;2022-11-20T02:07:42;100770.69;;;5.84;73.26
8699;BME280;4386;51.236;6.742;2022-11-20T02:08:44;100764.59;;;5.84;73.15
8699;BME280;4386;51.236;6.742;2022-11-20T02:09:47;100757.50;;;5.86;73.36
8699;BME280;4386;51.236;6.742;2022-11-20T02:10:50;100755.63;;;5.88;73.16
8699;BME280;4386;51.236;6.742;2022-11-20T02:11:52;100762.41;;;5.92;73.41
8699;BME280;4386;51.236;6.742;2022-11-20T02:12:54;100753.56;;;5.93;72.92
8699;BME280;4386;51.236;6.742;2022-11-20T02:14:15;100753.31;;;5.97;72.88
8699;BME280;4386;51.236;6.742;2022-11-20T02:15:17;100751.53;;;5.98;73.00
8699;BME280;4386;51.236;6.742;2022-11-20T02:16:22;100746.09;;;6.01;72.82
8699;BME280;4386;51.236;6.742;2022-11-20T02:17:25;100753.06;;;6.02;73.21
8699;BME280;4386;51.236;6.742;2022-11-20T02:18:27;100748.59;;;6.02;72.91
8699;BME280;4386;51.236;6.742;2022-11-20T02:19:31;100742.34;;;6.05;72.86
8699;BME280;4386;51.236;6.742;2022-11-20T02:20:34;100747.59;;;6.05;73.12
8699;BME280;4386;51.236;6.742;2022-11-20T02:21:39;100745.91;;;6.04;72.76
8699;BME280;4386;51.236;6.742;2022-11-20T02:22:48;100743.28;;;6.04;72.90
8699;BME280;4386;51.236;6.742;2022-11-20T02:24:02;100738.94;;;6.03;72.92
8699;BME280;4386;51.236;6.742;2022-11-20T02:25:06;100733.69;;;6.03;73.22
8699;BME280;4386;51.236;6.742;2022-11-20T02:26:11;100740.66;;;6.04;72.93
8699;BME280;4386;51.236;6.742;2022-11-20T02:27:16;100740.72;;;6.02;73.28
8699;BME280;4386;51.236;6.742;2022-11-20T02:28:18;100740.81;;;6.01;73.21
8699;BME280;4386;51.236;6.742;2022-11-20T02:29:24;100735.66;;;5.99;73.13
8699;BME280;4386;51.236;6.742;2022-11-20T02:30:27;100739.13;;;6.00;72.93
8699;BME280;4386;51.236;6.742;2022-11-20T02:31:37;100732.34;;;5.96;72.88
8699;BME280;4386;51.236;6.742;2022-11-20T02:32:40;100732.53;;;5.93;73.43
8699;BME280;4386;51.236;6.742;2022-11-20T02:33:42;100734.41;;;5.91;73.28
8699;BME280;4386;51.236;6.742;2022-11-20T02:34:44;100739.66;;;5.91;73.61
8699;BME280;4386;51.236;6.742;2022-11-20T02:35:47;100740.69;;;5.88;73.51
8699;BME280;4386;51.236;6.742;2022-11-20T02:36:49;100745.84;;;5.90;73.53
8699;BME280;4386;51.236;6.742;2022-11-20T02:37:54;100740.69;;;5.88;73.45
8699;BME280;4386;51.236;6.742;2022-11-20T02:38:56;100745.13;;;5.88;73.43
8699;BME280;4386;51.236;6.742;2022-11-20T02:40:00;100739.84;;;5.88;73.70
8699;BME280;4386;51.236;6.742;2022-11-20T02:41:01;100734.66;;;5.86;73.70
8699;BME280;4386;51.236;6.742;2022-11-20T02:42:05;100739.84;;;5.88;73.59
8699;BME280;4386;51.236;6.742;2022-11-20T02:43:07;100744.25;;;5.87;73.77
8699;BME280;4386;51.236;6.742;2022-11-20T02:44:09;100743.34;;;5.88;73.74
8699;BME280;4386;51.236;6.742;2022-11-20T02:45:11;100739.00;;;5.87;73.80
8699;BME280;4386;51.236;6.742;2022-11-20T02:46:14;100743.34;;;5.88;73.89
8699;BME280;4386;51.236;6.742;2022-11-20T02:47:16;100740.59;;;5.90;73.98
8699;BME280;4386;51.236;6.742;2022-11-20T02:48:18;100738.81;;;5.90;74.19
8699;BME280;4386;51.236;6.742;2022-11-20T02:49:20;100743.16;;;5.91;74.12
8699;BME280;4386;51.236;6.742;2022-11-20T02:50:22;100735.16;;;5.93;74.19
8699;BME280;4386;51.236;6.742;2022-11-20T02:51:24;100733.47;;;5.92;74.31
8699;BME280;4386;51.236;6.742;2022-11-20T02:52:27;100727.25;;;5.93;74.18
8699;BME280;4386;51.236;6.742;2022-11-20T02:53:28;100739.50;;;5.94;74.21
8699;BME280;4386;51.236;6.742;2022-11-20T02:54:31;100736.97;;;5.92;74.02
8699;BME280;4386;51.236;6.742;2022-11-20T02:55:34;100740.41;;;5.93;73.79
8699;BME280;4386;51.236;6.742;2022-11-20T02:56:37;100736.28;;;5.89;73.63
8699;BME280;4386;51.236;6.742;2022-11-20T02:57:39;100742.47;;;5.88;74.02
8699;BME280;4386;51.236;6.742;2022-11-20T02:58:42;100740.78;;;5.87;73.87
8699;BME280;4386;51.236;6.742;2022-11-20T02:59:43;100733.88;;;5.84;74.25
8699;BME280;4386;51.236;6.742;2022-11-20T03:00:46;100738.41;;;5.82;74.07
8699;BME280;4386;51.236;6.742;2022-11-20T03:01:47;100744.59;;;5.81;74.35
8699;BME280;4386;51.236;6.742;2022-11-20T03:02:50;100736.78;;;5.79;74.08
8699;BME280;4386;51.236;6.742;2022-11-20T03:03:51;100736.88;;;5.78;74.02
8699;BME280;4386;51.236;6.742;2022-11-20T03:04:55;100745.78;;;5.75;74.00
8699;BME280;4386;51.236;6.742;2022-11-20T03:05:58;100744.94;;;5.75;74.06
8699;BME280;4386;51.236;6.742;2022-11-20T03:07:01;100749.53;;;5.71;74.17
8699;BME280;4386;51.236;6.742;2022-11-20T03:08:02;100744.47;;;5.68;74.52
8699;BME280;4386;51.236;6.742;2022-11-20T03:09:05;100738.53;;;5.65;74.35
8699;BME280;4386;51.236;6.742;2022-11-20T03:10:08;100739.56;;;5.62;74.42
8699;BME280;4386;51.236;6.742;2022-11-20T03:11:11;100736.16;;;5.60;74.32
8699;BME280;4386;51.236;6.742;2022-11-20T03:12:14;100734.63;;;5.56;74.20
8699;BME280;4386;51.236;6.742;2022-11-20T03:13:16;100737.34;;;5.55;74.37
8699;BME280;4386;51.236;6.742;2022-11-20T03:14:21;100741.00;;;5.52;74.59
8699;BME280;4386;51.236;6.742;2022-11-20T03:15:22;100734.06;;;5.51;74.53
8699;BME280;4386;51.236;6.742;2022-11-20T03:16:25;100736.75;;;5.50;74.53
8699;BME280;4386;51.236;6.742;2022-11-20T03:17:27;100736.84;;;5.48;74.31
8699;BME280;4386;51.236;6.742;2022-11-20T03:18:30;100737.03;;;5.45;74.38
8699;BME280;4386;51.236;6.742;2022-11-20T03:19:32;100731.09;;;5.42;74.55
8699;BME280;4386;51.236;6.742;2022-11-20T03:20:35;100737.38;;;5.39;74.44
8699;BME280;4386;51.236;6.742;2022-11-20T03:21:37;100739.34;;;5.36;74.62
8699;BME280;4386;51.236;6.742;2022-11-20T03:22:40;100736.03;;;5.32;74.64
8699;BME280;4386;51.236;6.742;2022-11-20T03:23:42;100735.34;;;5.29;74.46
8699;BME280;4386;51.236;6.742;2022-11-20T03:24:44;100736.38;;;5.26;74.80
8699;BME280;4386;51.236;6.742;2022-11-20T03:25:46;100735.59;;;5.24;74.59
8699;BME280;4386;51.236;6.742;2022-11-20T03:26:49;100732.22;;;5.22;74.84
8699;BME280;4386;51.236;6.742;2022-11-20T03:27:51;100731.47;;;5.20;74.60
8699;BME280;4386;51.236;6.742;2022-11-20T03:28:55;100726.28;;;5.18;74.87
8699;BME280;4386;51.236;6.742;2022-11-20T03:29:57;100729.94;;;5.16;74.86
8699;BME280;4386;51.236;6.742;2022-11-20T03:31:05;100729.16;;;5.14;75.01
8699;BME280;4386;51.236;6.742;2022-11-20T03:32:07;100733.59;;;5.13;74.89
8699;BME280;4386;51.236;6.742;2022-11-20T03:33:09;100739.75;;;5.12;75.00
8699;BME280;4386;51.236;6.742;2022-11-20T03:34:11;100739.94;;;5.09;75.02
8699;BME280;4386;51.236;6.742;2022-11-20T03:35:14;100737.38;;;5.08;75.29
8699;BME280;4386;51.236;6.742;2022-11-20T03:36:18;100740.97;;;5.07;74.96
8699;BME280;4386;51.236;6.742;2022-11-20T03:37:20;100742.63;;;5.08;75.14
8699;BME280;4386;51.236;6.742;2022-11-20T03:38:22;100736.53;;;5.07;75.30
8699;BME280;4386;51.236;6.742;2022-11-20T03:39:24;100733.84;;;5.09;75.35
8699;BME280;4386;51.236;6.742;2022-11-20T03:40:26;100727.66;;;5.10;75.70
8699;BME280;4386;51.236;6.742;2022-11-20T03:41:30;100729.31;;;5.11;75.51
8699;BME280;4386;51.236;6.742;2022-11-20T03:42:33;100726.69;;;5.11;75.70
8699;BME280;4386;51.236;6.742;2022-11-20T03:43:48;100723.91;;;5.14;75.80
8699;BME280;4386;51.236;6.742;2022-11-20T03:44:50;100723.84;;;5.15;75.59
8699;BME280;4386;51.236;6.742;2022-11-20T03:45:53;100727.22;;;5.17;75.93
8699;BME280;4386;51.236;6.742;2022-11-20T03:46:54;100726.22;;;5.20;76.01
8699;BME280;4386;51.236;6.742;2022-11-20T03:47:57;100726.97;;;5.22;76.00
8699;BME280;4386;51.236;6.742;2022-11-20T03:48:59;100732.97;;;5.24;76.10
8699;BME280;4386;51.236;6.742;2022-11-20T03:50:01;100731.97;;;5.27;76.15
8699;BME280;4386;51.236;6.742;2022-11-20T03:51:07;100716.97;;;5.29;76.24
8699;BME280;4386;51.236;6.742;2022-11-20T03:52:09;100723.81;;;5.31;76.16
8699;BME280;4386;51.236;6.742;2022-11-20T03:53:11;100727.22;;;5.33;76.25
8699;BME280;4386;51.236;6.742;2022-11-20T03:54:13;100728.03;;;5.34;76.10
8699;BME280;4386;51.236;6.742;2022-11-20T03:55:15;100733.22;;;5.35;76.14
8699;BME280;4386;51.236;6.742;2022-11-20T03:56:19;100733.97;;;5.37;75.96
8699;BME280;4386;51.236;6.742;2022-11-20T03:57:21;100721.78;;;5.36;76.02
8699;BME280;4386;51.236;6.742;2022-11-20T03:58:24;100731.34;;;5.37;75.90
8699;BME280;4386;51.236;6.742;2022-11-20T03:59:26;100740.94;;;5.38;76.12
8699;BME280;4386;51.236;6.742;2022-11-20T04:00:28;100738.31;;;5.38;76.18
8699;BME280;4386;51.236;6.742;2022-11-20T04:01:32;100740.00;;;5.39;75.99
8699;BME280;4386;51.236;6.742;2022-11-20T04:02:35;100732.97;;;5.40;75.83
8699;BME280;4386;51.236;6.742;2022-11-20T04:03:38;100726.78;;;5.41;75.92
8699;BME280;4386;51.236;6.742;2022-11-20T04:04:40;100732.03;;;5.41;75.84
8699;BME280;4386;51.236;6.742;2022-11-20T04:05:42;100724.13;;;5.41;76.00
8699;BME280;4386;51.236;6.742;2022-11-20T04:06:45;100730.25;;;5.41;75.99
8699;BME280;4386;51.236;6.742;2022-11-20T04:07:47;100722.47;;;5.40;75.88
8699;BME280;4386;51.236;6.742;2022-11-20T04:08:49;100729.50;;;5.39;75.98
8699;BME280;4386;51.236;6.742;2022-11-20T04:09:54;100727.72;;;5.40;75.98
8699;BME280;4386;51.236;6.742;2022-11-20T04:10:57;100726.09;;;5.37;75.76
8699;BME280;4386;51.236;6.742;2022-11-20T04:12:08;100726.28;;;5.34;75.78
8699;BME280;4386;51.236;6.742;2022-11-20T04:13:11;100717.63;;;5.32;75.70
8699;BME280;4386;51.236;6.742;2022-11-20T04:14:14;100716.78;;;5.32;75.72
8699;BME280;4386;51.236;6.742;2022-11-20T04:15:17;100719.47;;;5.30;75.66
8699;BME280;4386;51.236;6.742;2022-11-20T04:16:19;100715.19;;;5.29;75.64
8699;BME280;4386;51.236;6.742;2022-11-20T04:17:22;100718.72;;;5.28;75.59
8699;BME280;4386;51.236;6.742;2022-11-20T04:18:23;100724.91;;;5.27;75.56
8699;BME280;4386;51.236;6.742;2022-11-20T04:19:26;100725.88;;;5.26;75.85
8699;BME280;4386;51.236;6.742;2022-11-20T04:20:27;100724.09;;;5.27;75.90
8699;BME280;4386;51.236;6.742;2022-11-20T04:21:30;100732.78;;;5.27;75.77
8699;BME280;4386;51.236;6.742;2022-11-20T04:22:32;100730.28;;;5.25;75.70
8699;BME280;4386;51.236;6.742;2022-11-20T04:23:35;100726.78;;;5.25;75.67
8699;BME280;4386;51.236;6.742;2022-11-20T04:24:36;100725.09;;;5.24;75.59
8699;BME280;4386;51.236;6.742;2022-11-20T04:25:39;100730.28;;;5.25;75.67
8699;BME280;4386;51.236;6.742;2022-11-20T04:26:40;100729.41;;;5.25;75.73
8699;BME280;4386;51.236;6.742;2022-11-20T04:27:43;100730.16;;;5.27;75.65
8699;BME280;4386;51.236;6.742;2022-11-20T04:28:44;100723.25;;;5.26;75.73
8699;BME280;4386;51.236;6.742;2022-11-20T04:29:48;100724.91;;;5.27;75.52
8699;BME280;4386;51.236;6.742;2022-11-20T04:30:50;100717.03;;;5.27;75.49
8699;BME280;4386;51.236;6.742;2022-11-20T04:31:52;100725.88;;;5.26;75.52
8699;BME280;4386;51.236;6.742;2022-11-20T04:32:54;100725.94;;;5.24;75.57
8699;BME280;4386;51.236;6.742;2022-11-20T04:33:59;100728.66;;;5.23;75.41
8699;BME280;4386;51.236;6.742;2022-11-20T04:35:01;100721.72;;;5.22;75.47
8699;BME280;4386;51.236;6.742;2022-11-20T04:36:06;100727.13;;;5.19;75.44
8699;BME280;4386;51.236;6.742;2022-11-20T04:37:08;100717.56;;;5.18;75.53
8699;BME280;4386;51.236;6.742;2022-11-20T04:38:10;100723.75;;;5.17;75.43
8699;BME280;4386;51.236;6.742;2022-11-20T04:39:13;100729.94;;;5.16;75.48
8699;BME280;4386;51.236;6.742;2022-11-20T04:40:16;100725.59;;;5.15;75.26
8699;BME280;4386;51.236;6.742;2022-11-20T04:41:20;100727.50;;;5.13;75.22
8699;BME280;4386;51.236;6.742;2022-11-20T04:42:24;100726.69;;;5.11;75.16
8699;BME280;4386;51.236;6.742;2022-11-20T04:43:35;100727.56;;;5.11;75.42
8699;BME280;4386;51.236;6.742;2022-11-20T04:44:38;100724.06;;;5.11;75.36
8699;BME280;4386;51.236;6.742;2022-11-20T04:45:41;100725.03;;;5.10;75.28
8699;BME280;4386;51.236;6.742;2022-11-20T04:46:43;100728.56;;;5.09;75.21
8699;BME280;4386;51.236;6.742;2022-11-20T04:47:45;100727.72;;;5.08;75.59
8699;BME280;4386;51.236;6.742;2022-11-20T04:48:47;100728.56;;;5.09;75.29
8699;BME280;4386;51.236;6.742;2022-11-20T04:49:49;100725.09;;;5.08;75.26
8699;BME280;4386;51.236;6.742;2022-11-20T04:50:55;100726.88;;;5.08;75.08
8699;BME280;4386;51.236;6.742;2022-11-20T04:51:57;100726.03;;;5.07;75.04
8699;BME280;4386;51.236;6.742;2022-11-20T04:52:59;100725.22;;;5.07;75.16
8699;BME280;4386;51.236;6.742;2022-11-20T04:54:01;100720.13;;;5.04;75.01
8699;BME280;4386;51.236;6.742;2022-11-20T04:55:04;100730.69;;;5.02;75.15
8699;BME280;4386;51.236;6.742;2022-11-20T04:56:08;100729.00;;;5.01;75.19
8699;BME280;4386;51.236;6.742;2022-11-20T04:57:13;100725.50;;;5.01;75.35
8699;BME280;4386;51.236;6.742;2022-11-20T04:58:16;100723.84;;;5.00;75.03
8699;BME280;4386;51.236;6.742;2022-11-20T04:59:18;100725.50;;;5.01;75.17
8699;BME280;4386;51.236;6.742;2022-11-20T05:00:21;100726.38;;;5.01;75.15
8699;BME280;4386;51.236;6.742;2022-11-20T05:01:26;100725.50;;;5.01;75.07
8699;BME280;4386;51.236;6.742;2022-11-20T05:02:30;100729.09;;;5.00;75.08
8699;BME280;4386;51.236;6.742;2022-11-20T05:03:32;100726.47;;;5.00;75.12
8699;BME280;4386;51.236;6.742;2022-11-20T05:04:41;100723.91;;;4.98;74.91
8699;BME280;4386;51.236;6.742;2022-11-20T05:05:43;100716.88;;;4.99;74.90
8699;BME280;4386;51.236;6.742;2022-11-20T05:06:45;100725.63;;;4.99;75.11
8699;BME280;4386;51.236;6.742;2022-11-20T05:07:48;100723.84;;;5.00;75.02
8699;BME280;4386;51.236;6.742;2022-11-20T05:08:50;100723.75;;;5.01;74.87
8699;BME280;4386;51.236;6.742;2022-11-20T05:09:52;100728.00;;;5.04;74.93
8699;BME280;4386;51.236;6.742;2022-11-20T05:10:58;100725.38;;;5.04;74.96
8699;BME280;4386;51.236;6.742;2022-11-20T05:12:01;100730.63;;;5.04;74.72
8699;BME280;4386;51.236;6.742;2022-11-20T05:13:02;100731.44;;;5.04;74.97
8699;BME280;4386;51.236;6.742;2022-11-20T05:14:05;100721.78;;;5.05;75.04
8699;BME280;4386;51.236;6.742;2022-11-20T05:15:07;100728.91;;;5.03;74.80
8699;BME280;4386;51.236;6.742;2022-11-20T05:16:12;100727.22;;;5.02;74.45
8699;BME280;4386;51.236;6.742;2022-11-20T05:17:15;100725.50;;;5.01;74.79
8699;BME280;4386;51.236;6.742;2022-11-20T05:18:18;100723.84;;;5.00;74.91
8699;BME280;4386;51.236;6.742;2022-11-20T05:19:23;100725.50;;;5.01;74.96
8699;BME280;4386;51.236;6.742;2022-11-20T05:20:25;100726.38;;;5.01;74.89
8699;BME280;4386;51.236;6.742;2022-11-20T05:21:29;100726.38;;;5.01;74.95
8699;BME280;4386;51.236;6.742;2022-11-20T05:22:32;100723.00;;;4.99;74.67
8699;BME280;4386;51.236;6.742;2022-11-20T05:23:34;100727.38;;;4.99;74.71
8699;BME280;4386;51.236;6.742;2022-11-20T05:24:36;100724.00;;;4.97;74.45
8699;BME280;4386;51.236;6.742;2022-11-20T05:25:38;100725.78;;;4.96;74.77
8699;BME280;4386;51.236;6.742;2022-11-20T05:26:40;100724.09;;;4.95;74.86
8699;BME280;4386;51.236;6.742;2022-11-20T05:27:42;100727.56;;;4.96;74.74
8699;BME280;4386;51.236;6.742;2022-11-20T05:28:45;100727.56;;;4.96;74.71
8699;BME280;4386;51.236;6.742;2022-11-20T05:29:46;100728.47;;;4.95;74.56
8699;BME280;4386;51.236;6.742;2022-11-20T05:30:49;100719.75;;;4.94;74.75
8699;BME280;4386;51.236;6.742;2022-11-20T05:31:51;100715.34;;;4.95;74.54
8699;BME280;4386;51.236;6.742;2022-11-20T05:32:54;100725.84;;;4.95;74.71
8699;BME280;4386;51.236;6.742;2022-11-20T05:33:56;100726.63;;;4.97;74.86
8699;BME280;4386;51.236;6.742;2022-11-20T05:34:59;100723.00;;;4.99;74.61
8699;BME280;4386;51.236;6.742;2022-11-20T05:36:01;100718.59;;;5.00;74.66
8699;BME280;4386;51.236;6.742;2022-11-20T05:37:04;100728.00;;;5.04;74.88
8699;BME280;4386;51.236;6.742;2022-11-20T05:38:05;100720.03;;;5.05;74.67
8699;BME280;4386;51.236;6.742;2022-11-20T05:39:10;100721.63;;;5.08;75.00
8699;BME280;4386;51.236;6.742;2022-11-20T05:40:13;100716.19;;;5.11;74.78
8699;BME280;4386;51.236;6.742;2022-11-20T05:41:16;100721.28;;;5.14;74.90
8699;BME280;4386;51.236;6.742;2022-11-20T05:42:19;100719.44;;;5.16;74.92
8699;BME280;4386;51.236;6.742;2022-11-20T05:43:33;100717.56;;;5.18;74.70
8699;BME280;4386;51.236;6.742;2022-11-20T05:44:38;100717.47;;;5.19;74.59
8699;BME280;4386;51.236;6.742;2022-11-20T05:45:41;100720.00;;;5.21;74.62